Atsinanana Airport


Codes: FMMQ/ILK
Name: Atsinanana Airport
City: Ilaka
Country: Madagascar
Elevation: 33 ft.

Photos at Atsinanana Airport


   Photos courtesy of SpottingLog. You can add your own sightings and photos by signing up for a free trial today.



No photos found.

Weather at Atsinanana Airport


Time (UTC)DescriptionTempratureWindCloud coverageVisibilityPressureHumidity
18-Apr-2024 00:00Light Rain21°C4 mph, SW94%10000m1022hPa91%
18-Apr-2024 03:00Light Rain21°C2 mph, S86%10000m1022hPa93%
18-Apr-2024 06:00Light Rain21°C2 mph, SW89%10000m1023hPa92%
18-Apr-2024 09:00Light Rain23°C4 mph, S100%10000m1021hPa85%
18-Apr-2024 12:00Light Rain25°C4 mph, S94%10000m1019hPa75%
18-Apr-2024 15:00Light Rain21°C4 mph, S27%10000m1020hPa85%
18-Apr-2024 18:00Light Rain20°C2 mph, SW27%10000m1021hPa89%
18-Apr-2024 21:00Light Rain20°C2 mph, SW86%10000m1020hPa90%
19-Apr-2024 00:00Light Rain20°C4 mph, SW93%10000m1018hPa89%
19-Apr-2024 03:00Light Rain20°C4 mph, SW100%10000m1019hPa86%
19-Apr-2024 06:00Overcast Clouds24°C4 mph, SW99%10000m1019hPa67%
19-Apr-2024 09:00Broken Clouds27°C4 mph, SE55%10000m1016hPa61%
19-Apr-2024 12:00Light Rain25°C4 mph, SE72%10000m1015hPa71%
19-Apr-2024 15:00Overcast Clouds22°C2 mph, SE99%10000m1016hPa86%
19-Apr-2024 18:00Overcast Clouds21°C2 mph, W98%10000m1017hPa90%
19-Apr-2024 21:00Overcast Clouds21°C4 mph, W100%10000m1015hPa91%
20-Apr-2024 00:00Overcast Clouds20°C2 mph, W100%10000m1014hPa92%
20-Apr-2024 03:00Overcast Clouds20°C2 mph, W90%10000m1015hPa91%
20-Apr-2024 06:00Overcast Clouds25°C2 mph, N95%10000m1015hPa66%
20-Apr-2024 09:00Broken Clouds28°C4 mph, NE80%10000m1012hPa56%
20-Apr-2024 12:00Broken Clouds28°C7 mph, NE82%10000m1010hPa61%
20-Apr-2024 15:00Overcast Clouds23°C2 mph, NE99%10000m1013hPa87%
20-Apr-2024 18:00Overcast Clouds22°C2 mph, NW100%10000m1014hPa90%
20-Apr-2024 21:00Broken Clouds22°C2 mph, NW51%10000m1013hPa93%
21-Apr-2024 00:00Scattered Clouds21°C2 mph, NW26%10000m1012hPa94%
21-Apr-2024 03:00Clear Sky21°C2 mph, NW2%10000m1013hPa94%
21-Apr-2024 06:00Clear Sky27°C2 mph, N1%10000m1014hPa69%
21-Apr-2024 09:00Clear Sky30°C4 mph, E0%10000m1012hPa60%
21-Apr-2024 12:00Clear Sky28°C7 mph, NE0%10000m1011hPa67%
21-Apr-2024 15:00Clear Sky24°C2 mph, NE0%10000m1013hPa89%
21-Apr-2024 18:00Few Clouds24°C2 mph, N16%10000m1014hPa93%
21-Apr-2024 21:00Overcast Clouds24°C4 mph, NW85%10000m1014hPa90%
22-Apr-2024 00:00Broken Clouds23°C2 mph, NW70%10000m1012hPa95%
22-Apr-2024 03:00Overcast Clouds23°C2 mph, NW93%10000m1013hPa94%
22-Apr-2024 06:00Overcast Clouds28°C4 mph, N96%10000m1015hPa70%
22-Apr-2024 09:00Overcast Clouds31°C7 mph, NE87%10000m1012hPa60%
22-Apr-2024 12:00Broken Clouds30°C9 mph, NE68%10000m1011hPa66%
22-Apr-2024 15:00Clear Sky25°C4 mph, NE0%10000m1013hPa89%
22-Apr-2024 18:00Clear Sky24°C4 mph, N0%10000m1014hPa94%
22-Apr-2024 21:00Clear Sky24°C4 mph, N4%10000m1014hPa96%